sensor_id;sensor_type;location;lat;lon;timestamp;P1;durP1;ratioP1;P2;durP2;ratioP2
1591;SDS011;789;51.612;7.510;2023-04-15T00:01:45;9.50;;;8.50;;
1591;SDS011;789;51.612;7.510;2023-04-15T00:04:13;12.40;;;9.40;;
1591;SDS011;789;51.612;7.510;2023-04-15T00:06:39;9.50;;;8.33;;
1591;SDS011;789;51.612;7.510;2023-04-15T00:09:08;9.73;;;8.83;;
1591;SDS011;789;51.612;7.510;2023-04-15T00:11:35;9.30;;;8.30;;
1591;SDS011;789;51.612;7.510;2023-04-15T00:14:02;9.57;;;8.43;;
1591;SDS011;789;51.612;7.510;2023-04-15T00:16:28;10.03;;;9.03;;
1591;SDS011;789;51.612;7.510;2023-04-15T00:19:04;9.47;;;8.47;;
1591;SDS011;789;51.612;7.510;2023-04-15T00:21:31;14.87;;;8.73;;
1591;SDS011;789;51.612;7.510;2023-04-15T00:23:58;9.27;;;8.37;;
1591;SDS011;789;51.612;7.510;2023-04-15T00:26:27;10.57;;;8.63;;
1591;SDS011;789;51.612;7.510;2023-04-15T00:28:53;10.70;;;8.23;;
1591;SDS011;789;51.612;7.510;2023-04-15T00:31:20;9.00;;;8.10;;
1591;SDS011;789;51.612;7.510;2023-04-15T00:33:47;9.40;;;8.53;;
1591;SDS011;789;51.612;7.510;2023-04-15T00:36:14;11.00;;;8.17;;
1591;SDS011;789;51.612;7.510;2023-04-15T00:38:41;10.23;;;8.60;;
1591;SDS011;789;51.612;7.510;2023-04-15T00:41:08;9.30;;;7.63;;
1591;SDS011;789;51.612;7.510;2023-04-15T00:43:37;12.40;;;8.90;;
1591;SDS011;789;51.612;7.510;2023-04-15T00:46:04;9.10;;;7.90;;
1591;SDS011;789;51.612;7.510;2023-04-15T00:48:32;9.90;;;9.00;;
1591;SDS011;789;51.612;7.510;2023-04-15T00:50:59;9.53;;;8.43;;
1591;SDS011;789;51.612;7.510;2023-04-15T00:53:26;9.40;;;8.00;;
1591;SDS011;789;51.612;7.510;2023-04-15T00:55:53;9.07;;;8.17;;
1591;SDS011;789;51.612;7.510;2023-04-15T00:58:20;9.83;;;7.83;;
1591;SDS011;789;51.612;7.510;2023-04-15T01:00:49;9.20;;;8.30;;
1591;SDS011;789;51.612;7.510;2023-04-15T01:03:18;9.13;;;7.90;;
1591;SDS011;789;51.612;7.510;2023-04-15T01:05:45;9.87;;;8.90;;
1591;SDS011;789;51.612;7.510;2023-04-15T01:08:12;9.10;;;8.00;;
1591;SDS011;789;51.612;7.510;2023-04-15T01:10:38;9.90;;;8.90;;
1591;SDS011;789;51.612;7.510;2023-04-15T01:13:05;14.70;;;8.67;;
1591;SDS011;789;51.612;7.510;2023-04-15T01:15:33;12.20;;;9.30;;
1591;SDS011;789;51.612;7.510;2023-04-15T01:18:03;11.27;;;8.60;;
1591;SDS011;789;51.612;7.510;2023-04-15T01:20:30;9.30;;;7.70;;
1591;SDS011;789;51.612;7.510;2023-04-15T01:22:56;9.53;;;8.47;;
1591;SDS011;789;51.612;7.510;2023-04-15T01:25:27;10.27;;;7.57;;
1591;SDS011;789;51.612;7.510;2023-04-15T01:27:57;11.70;;;8.70;;
1591;SDS011;789;51.612;7.510;2023-04-15T01:30:24;11.43;;;8.77;;
1591;SDS011;789;51.612;7.510;2023-04-15T01:32:52;10.53;;;8.83;;
1591;SDS011;789;51.612;7.510;2023-04-15T01:35:18;9.43;;;8.50;;
1591;SDS011;789;51.612;7.510;2023-04-15T01:37:46;9.20;;;8.20;;
1591;SDS011;789;51.612;7.510;2023-04-15T01:40:14;11.47;;;8.10;;
1591;SDS011;789;51.612;7.510;2023-04-15T01:42:42;8.97;;;7.90;;
1591;SDS011;789;51.612;7.510;2023-04-15T01:45:10;11.40;;;8.77;;
1591;SDS011;789;51.612;7.510;2023-04-15T01:47:37;9.87;;;8.80;;
1591;SDS011;789;51.612;7.510;2023-04-15T01:50:04;9.47;;;8.37;;
1591;SDS011;789;51.612;7.510;2023-04-15T01:52:32;11.73;;;9.27;;
1591;SDS011;789;51.612;7.510;2023-04-15T01:54:59;9.43;;;8.43;;
1591;SDS011;789;51.612;7.510;2023-04-15T01:57:26;15.13;;;9.17;;
1591;SDS011;789;51.612;7.510;2023-04-15T01:59:54;11.00;;;8.70;;
1591;SDS011;789;51.612;7.510;2023-04-15T02:02:21;13.13;;;9.23;;
1591;SDS011;789;51.612;7.510;2023-04-15T02:04:47;10.03;;;8.77;;
1591;SDS011;789;51.612;7.510;2023-04-15T02:07:14;9.03;;;8.00;;
1591;SDS011;789;51.612;7.510;2023-04-15T02:09:41;8.90;;;7.80;;
1591;SDS011;789;51.612;7.510;2023-04-15T02:12:10;11.47;;;8.80;;
1591;SDS011;789;51.612;7.510;2023-04-15T02:14:37;11.07;;;8.83;;
1591;SDS011;789;51.612;7.510;2023-04-15T02:17:05;13.23;;;8.83;;
1591;SDS011;789;51.612;7.510;2023-04-15T02:19:32;10.10;;;8.10;;
1591;SDS011;789;51.612;7.510;2023-04-15T02:21:59;10.63;;;9.13;;
1591;SDS011;789;51.612;7.510;2023-04-15T02:24:26;10.53;;;8.03;;
1591;SDS011;789;51.612;7.510;2023-04-15T02:26:53;11.47;;;8.93;;
1591;SDS011;789;51.612;7.510;2023-04-15T02:29:21;17.67;;;8.53;;
1591;SDS011;789;51.612;7.510;2023-04-15T02:31:48;9.57;;;8.23;;
1591;SDS011;789;51.612;7.510;2023-04-15T02:34:16;9.37;;;8.37;;
1591;SDS011;789;51.612;7.510;2023-04-15T02:36:44;10.53;;;9.40;;
1591;SDS011;789;51.612;7.510;2023-04-15T02:39:12;12.50;;;8.93;;
1591;SDS011;789;51.612;7.510;2023-04-15T02:41:40;12.83;;;9.73;;
1591;SDS011;789;51.612;7.510;2023-04-15T02:44:07;9.63;;;8.57;;
1591;SDS011;789;51.612;7.510;2023-04-15T02:46:36;10.87;;;8.87;;
1591;SDS011;789;51.612;7.510;2023-04-15T02:49:05;11.37;;;8.50;;
1591;SDS011;789;51.612;7.510;2023-04-15T02:51:35;11.13;;;8.83;;
1591;SDS011;789;51.612;7.510;2023-04-15T02:54:02;9.93;;;8.20;;
1591;SDS011;789;51.612;7.510;2023-04-15T02:56:29;10.00;;;8.43;;
1591;SDS011;789;51.612;7.510;2023-04-15T02:58:56;12.40;;;9.17;;
1591;SDS011;789;51.612;7.510;2023-04-15T03:01:23;10.40;;;9.37;;
1591;SDS011;789;51.612;7.510;2023-04-15T03:03:50;10.67;;;9.57;;
1591;SDS011;789;51.612;7.510;2023-04-15T03:06:17;11.00;;;9.90;;
1591;SDS011;789;51.612;7.510;2023-04-15T03:08:45;10.03;;;9.07;;
1591;SDS011;789;51.612;7.510;2023-04-15T03:11:13;12.83;;;10.10;;
1591;SDS011;789;51.612;7.510;2023-04-15T03:13:40;11.40;;;9.67;;
1591;SDS011;789;51.612;7.510;2023-04-15T03:16:07;11.97;;;10.87;;
1591;SDS011;789;51.612;7.510;2023-04-15T03:18:34;10.87;;;9.77;;
1591;SDS011;789;51.612;7.510;2023-04-15T03:21:00;21.90;;;10.50;;
1591;SDS011;789;51.612;7.510;2023-04-15T03:23:27;12.80;;;10.53;;
1591;SDS011;789;51.612;7.510;2023-04-15T03:26:00;12.83;;;10.20;;
1591;SDS011;789;51.612;7.510;2023-04-15T03:28:27;11.23;;;10.13;;
1591;SDS011;789;51.612;7.510;2023-04-15T03:30:55;17.63;;;11.37;;
1591;SDS011;789;51.612;7.510;2023-04-15T03:33:21;15.67;;;10.93;;
1591;SDS011;789;51.612;7.510;2023-04-15T03:35:49;14.43;;;10.30;;
1591;SDS011;789;51.612;7.510;2023-04-15T03:38:17;19.13;;;10.60;;
1591;SDS011;789;51.612;7.510;2023-04-15T03:40:45;18.63;;;10.90;;
1591;SDS011;789;51.612;7.510;2023-04-15T03:43:13;12.57;;;11.27;;
1591;SDS011;789;51.612;7.510;2023-04-15T03:45:40;12.30;;;10.63;;
1591;SDS011;789;51.612;7.510;2023-04-15T03:48:07;12.47;;;11.17;;
1591;SDS011;789;51.612;7.510;2023-04-15T03:50:34;12.40;;;11.03;;
1591;SDS011;789;51.612;7.510;2023-04-15T03:53:00;14.87;;;11.23;;
1591;SDS011;789;51.612;7.510;2023-04-15T03:55:27;14.13;;;11.67;;
1591;SDS011;789;51.612;7.510;2023-04-15T03:57:54;17.23;;;12.43;;
1591;SDS011;789;51.612;7.510;2023-04-15T04:00:22;15.77;;;11.80;;
1591;SDS011;789;51.612;7.510;2023-04-15T04:02:49;13.27;;;11.87;;
1591;SDS011;789;51.612;7.510;2023-04-15T04:05:16;14.73;;;12.60;;
1591;SDS011;789;51.612;7.510;2023-04-15T04:07:43;14.87;;;12.50;;
1591;SDS011;789;51.612;7.510;2023-04-15T04:10:09;13.07;;;11.70;;
1591;SDS011;789;51.612;7.510;2023-04-15T04:12:36;15.13;;;12.20;;
1591;SDS011;789;51.612;7.510;2023-04-15T04:15:03;13.07;;;11.50;;
1591;SDS011;789;51.612;7.510;2023-04-15T04:17:32;14.90;;;13.30;;
1591;SDS011;789;51.612;7.510;2023-04-15T04:19:59;15.07;;;13.17;;
1591;SDS011;789;51.612;7.510;2023-04-15T04:22:25;15.90;;;12.80;;
1591;SDS011;789;51.612;7.510;2023-04-15T04:24:52;14.83;;;12.90;;
1591;SDS011;789;51.612;7.510;2023-04-15T04:27:19;15.00;;;13.00;;
1591;SDS011;789;51.612;7.510;2023-04-15T04:29:46;16.00;;;13.57;;
1591;SDS011;789;51.612;7.510;2023-04-15T04:32:13;15.90;;;13.27;;
1591;SDS011;789;51.612;7.510;2023-04-15T04:34:42;15.67;;;13.83;;
1591;SDS011;789;51.612;7.510;2023-04-15T04:37:08;17.40;;;14.03;;
1591;SDS011;789;51.612;7.510;2023-04-15T04:39:35;18.97;;;13.30;;
1591;SDS011;789;51.612;7.510;2023-04-15T04:42:02;15.90;;;14.00;;
1591;SDS011;789;51.612;7.510;2023-04-15T04:44:29;17.83;;;15.07;;
1591;SDS011;789;51.612;7.510;2023-04-15T04:46:56;18.60;;;15.20;;
1591;SDS011;789;51.612;7.510;2023-04-15T04:49:23;18.83;;;14.93;;
1591;SDS011;789;51.612;7.510;2023-04-15T04:51:51;19.17;;;14.50;;
1591;SDS011;789;51.612;7.510;2023-04-15T04:54:18;17.60;;;15.70;;
1591;SDS011;789;51.612;7.510;2023-04-15T04:56:45;16.33;;;14.70;;
1591;SDS011;789;51.612;7.510;2023-04-15T04:59:12;17.07;;;14.53;;
1591;SDS011;789;51.612;7.510;2023-04-15T05:01:38;18.90;;;15.10;;
1591;SDS011;789;51.612;7.510;2023-04-15T05:04:05;24.67;;;15.83;;
1591;SDS011;789;51.612;7.510;2023-04-15T05:06:32;16.60;;;14.30;;
1591;SDS011;789;51.612;7.510;2023-04-15T05:09:01;16.60;;;13.90;;
1591;SDS011;789;51.612;7.510;2023-04-15T05:11:28;15.23;;;13.63;;
1591;SDS011;789;51.612;7.510;2023-04-15T05:13:55;17.07;;;14.60;;
1591;SDS011;789;51.612;7.510;2023-04-15T05:16:23;17.07;;;15.10;;
1591;SDS011;789;51.612;7.510;2023-04-15T05:18:50;19.13;;;15.33;;
1591;SDS011;789;51.612;7.510;2023-04-15T05:21:17;17.70;;;15.70;;
1591;SDS011;789;51.612;7.510;2023-04-15T05:23:44;17.50;;;15.30;;
1591;SDS011;789;51.612;7.510;2023-04-15T05:26:13;18.17;;;14.80;;
1591;SDS011;789;51.612;7.510;2023-04-15T05:28:39;17.30;;;14.67;;
1591;SDS011;789;51.612;7.510;2023-04-15T05:31:06;20.83;;;14.60;;
1591;SDS011;789;51.612;7.510;2023-04-15T05:33:33;20.27;;;14.27;;
1591;SDS011;789;51.612;7.510;2023-04-15T05:36:00;18.90;;;14.50;;
1591;SDS011;789;51.612;7.510;2023-04-15T05:38:27;19.70;;;14.20;;
1591;SDS011;789;51.612;7.510;2023-04-15T05:40:54;18.87;;;15.63;;
1591;SDS011;789;51.612;7.510;2023-04-15T05:43:23;18.00;;;15.40;;
1591;SDS011;789;51.612;7.510;2023-04-15T05:45:50;14.57;;;13.03;;
1591;SDS011;789;51.612;7.510;2023-04-15T05:48:17;18.83;;;15.30;;
1591;SDS011;789;51.612;7.510;2023-04-15T05:50:44;15.60;;;13.90;;
1591;SDS011;789;51.612;7.510;2023-04-15T05:53:10;16.63;;;14.13;;
1591;SDS011;789;51.612;7.510;2023-04-15T05:55:37;16.13;;;14.30;;
1591;SDS011;789;51.612;7.510;2023-04-15T05:58:05;17.23;;;15.37;;
1591;SDS011;789;51.612;7.510;2023-04-15T06:00:33;18.07;;;14.97;;
1591;SDS011;789;51.612;7.510;2023-04-15T06:03:00;19.00;;;15.13;;
1591;SDS011;789;51.612;7.510;2023-04-15T06:05:27;16.77;;;14.33;;
1591;SDS011;789;51.612;7.510;2023-04-15T06:07:54;16.43;;;14.60;;
1591;SDS011;789;51.612;7.510;2023-04-15T06:10:24;16.63;;;14.43;;
1591;SDS011;789;51.612;7.510;2023-04-15T06:12:51;16.13;;;14.43;;
1591;SDS011;789;51.612;7.510;2023-04-15T06:15:18;19.10;;;16.60;;
1591;SDS011;789;51.612;7.510;2023-04-15T06:17:47;17.47;;;15.63;;
1591;SDS011;789;51.612;7.510;2023-04-15T06:20:14;16.27;;;14.57;;
1591;SDS011;789;51.612;7.510;2023-04-15T06:22:40;20.40;;;15.40;;
1591;SDS011;789;51.612;7.510;2023-04-15T06:25:08;20.07;;;15.97;;
1591;SDS011;789;51.612;7.510;2023-04-15T06:27:35;18.67;;;15.60;;
1591;SDS011;789;51.612;7.510;2023-04-15T06:30:02;16.90;;;14.67;;
1591;SDS011;789;51.612;7.510;2023-04-15T06:32:29;17.77;;;15.97;;
1591;SDS011;789;51.612;7.510;2023-04-15T06:34:57;16.53;;;14.93;;
1591;SDS011;789;51.612;7.510;2023-04-15T06:37:24;20.53;;;16.13;;
1591;SDS011;789;51.612;7.510;2023-04-15T06:39:51;17.93;;;15.40;;
1591;SDS011;789;51.612;7.510;2023-04-15T06:42:18;17.10;;;15.17;;
1591;SDS011;789;51.612;7.510;2023-04-15T06:44:44;17.33;;;14.97;;
1591;SDS011;789;51.612;7.510;2023-04-15T06:47:11;18.97;;;15.70;;
1591;SDS011;789;51.612;7.510;2023-04-15T06:49:38;18.13;;;15.30;;
1591;SDS011;789;51.612;7.510;2023-04-15T06:52:06;17.30;;;15.40;;
1591;SDS011;789;51.612;7.510;2023-04-15T06:54:34;18.43;;;16.40;;
1591;SDS011;789;51.612;7.510;2023-04-15T06:57:00;18.60;;;14.30;;
1591;SDS011;789;51.612;7.510;2023-04-15T06:59:27;19.10;;;15.70;;
1591;SDS011;789;51.612;7.510;2023-04-15T07:01:54;16.93;;;14.97;;
1591;SDS011;789;51.612;7.510;2023-04-15T07:04:21;19.00;;;14.20;;
1591;SDS011;789;51.612;7.510;2023-04-15T07:06:48;17.50;;;14.67;;
1591;SDS011;789;51.612;7.510;2023-04-15T07:09:16;16.60;;;14.80;;
1591;SDS011;789;51.612;7.510;2023-04-15T07:11:43;21.70;;;17.03;;
1591;SDS011;789;51.612;7.510;2023-04-15T07:14:10;19.13;;;15.40;;
1591;SDS011;789;51.612;7.510;2023-04-15T07:16:37;15.97;;;14.30;;
1591;SDS011;789;51.612;7.510;2023-04-15T07:19:04;15.63;;;14.03;;
1591;SDS011;789;51.612;7.510;2023-04-15T07:21:31;17.13;;;14.10;;
1591;SDS011;789;51.612;7.510;2023-04-15T07:23:58;27.47;;;14.70;;
1591;SDS011;789;51.612;7.510;2023-04-15T07:26:26;15.10;;;13.50;;
1591;SDS011;789;51.612;7.510;2023-04-15T07:28:53;15.73;;;14.10;;
1591;SDS011;789;51.612;7.510;2023-04-15T07:31:20;28.03;;;14.10;;
1591;SDS011;789;51.612;7.510;2023-04-15T07:33:47;15.53;;;13.00;;
1591;SDS011;789;51.612;7.510;2023-04-15T07:36:14;17.00;;;13.27;;
1591;SDS011;789;51.612;7.510;2023-04-15T07:38:40;14.93;;;12.30;;
1591;SDS011;789;51.612;7.510;2023-04-15T07:41:07;18.43;;;13.70;;
1591;SDS011;789;51.612;7.510;2023-04-15T07:43:36;15.67;;;13.80;;
1591;SDS011;789;51.612;7.510;2023-04-15T07:46:03;15.33;;;13.73;;
1591;SDS011;789;51.612;7.510;2023-04-15T07:48:30;15.50;;;13.67;;
1591;SDS011;789;51.612;7.510;2023-04-15T07:50:57;17.40;;;13.10;;
1591;SDS011;789;51.612;7.510;2023-04-15T07:53:24;14.20;;;11.30;;
1591;SDS011;789;51.612;7.510;2023-04-15T07:55:51;17.97;;;11.27;;
1591;SDS011;789;51.612;7.510;2023-04-15T07:58:18;15.80;;;12.50;;
1591;SDS011;789;51.612;7.510;2023-04-15T08:00:46;13.90;;;11.83;;
1591;SDS011;789;51.612;7.510;2023-04-15T08:03:13;13.97;;;11.53;;
1591;SDS011;789;51.612;7.510;2023-04-15T08:05:40;14.03;;;11.87;;
1591;SDS011;789;51.612;7.510;2023-04-15T08:08:07;15.90;;;11.20;;
1591;SDS011;789;51.612;7.510;2023-04-15T08:10:34;14.03;;;10.27;;
1591;SDS011;789;51.612;7.510;2023-04-15T08:13:01;12.60;;;9.90;;
1591;SDS011;789;51.612;7.510;2023-04-15T08:15:27;11.23;;;9.50;;
1591;SDS011;789;51.612;7.510;2023-04-15T08:17:56;12.23;;;9.57;;
1591;SDS011;789;51.612;7.510;2023-04-15T08:20:24;11.30;;;10.03;;
1591;SDS011;789;51.612;7.510;2023-04-15T08:22:51;12.77;;;11.47;;
1591;SDS011;789;51.612;7.510;2023-04-15T08:25:22;13.17;;;10.57;;
1591;SDS011;789;51.612;7.510;2023-04-15T08:27:49;15.87;;;9.80;;
1591;SDS011;789;51.612;7.510;2023-04-15T08:30:16;14.93;;;10.43;;
1591;SDS011;789;51.612;7.510;2023-04-15T08:32:44;13.13;;;11.77;;
1591;SDS011;789;51.612;7.510;2023-04-15T08:35:13;12.50;;;11.00;;
1591;SDS011;789;51.612;7.510;2023-04-15T08:37:39;12.53;;;11.23;;
1591;SDS011;789;51.612;7.510;2023-04-15T08:40:07;11.73;;;10.20;;
1591;SDS011;789;51.612;7.510;2023-04-15T08:42:35;10.83;;;9.80;;
1591;SDS011;789;51.612;7.510;2023-04-15T08:45:06;12.03;;;10.60;;
1591;SDS011;789;51.612;7.510;2023-04-15T08:47:35;11.57;;;10.47;;
1591;SDS011;789;51.612;7.510;2023-04-15T08:50:04;12.30;;;11.03;;
1591;SDS011;789;51.612;7.510;2023-04-15T08:52:36;13.00;;;11.67;;
1591;SDS011;789;51.612;7.510;2023-04-15T08:55:03;11.20;;;10.10;;
1591;SDS011;789;51.612;7.510;2023-04-15T08:57:30;13.77;;;12.10;;
1591;SDS011;789;51.612;7.510;2023-04-15T08:59:58;13.00;;;11.73;;
1591;SDS011;789;51.612;7.510;2023-04-15T09:02:27;12.17;;;10.97;;
1591;SDS011;789;51.612;7.510;2023-04-15T09:04:55;12.40;;;11.27;;
1591;SDS011;789;51.612;7.510;2023-04-15T09:07:22;14.10;;;12.47;;
1591;SDS011;789;51.612;7.510;2023-04-15T09:09:50;13.73;;;12.33;;
1591;SDS011;789;51.612;7.510;2023-04-15T09:12:17;13.70;;;12.30;;
1591;SDS011;789;51.612;7.510;2023-04-15T09:14:44;14.43;;;12.93;;
1591;SDS011;789;51.612;7.510;2023-04-15T09:17:12;14.40;;;13.00;;
1591;SDS011;789;51.612;7.510;2023-04-15T09:19:38;13.47;;;12.07;;
1591;SDS011;789;51.612;7.510;2023-04-15T09:22:05;12.73;;;11.43;;
1591;SDS011;789;51.612;7.510;2023-04-15T09:24:33;14.13;;;12.67;;
1591;SDS011;789;51.612;7.510;2023-04-15T09:27:04;13.47;;;12.17;;
1591;SDS011;789;51.612;7.510;2023-04-15T09:29:31;13.93;;;12.40;;
1591;SDS011;789;51.612;7.510;2023-04-15T09:32:08;13.80;;;12.40;;
1591;SDS011;789;51.612;7.510;2023-04-15T09:34:36;15.40;;;13.57;;
1591;SDS011;789;51.612;7.510;2023-04-15T09:37:02;13.20;;;11.83;;
1591;SDS011;789;51.612;7.510;2023-04-15T09:39:44;15.60;;;11.20;;
1591;SDS011;789;51.612;7.510;2023-04-15T09:42:13;11.43;;;10.23;;
1591;SDS011;789;51.612;7.510;2023-04-15T09:44:41;12.90;;;9.67;;
1591;SDS011;789;51.612;7.510;2023-04-15T09:47:08;13.00;;;10.00;;
1591;SDS011;789;51.612;7.510;2023-04-15T09:49:35;10.43;;;9.40;;
1591;SDS011;789;51.612;7.510;2023-04-15T09:52:02;11.33;;;9.80;;
1591;SDS011;789;51.612;7.510;2023-04-15T09:54:33;11.73;;;10.43;;
1591;SDS011;789;51.612;7.510;2023-04-15T09:57:04;12.80;;;11.00;;
1591;SDS011;789;51.612;7.510;2023-04-15T09:59:33;11.13;;;9.97;;
1591;SDS011;789;51.612;7.510;2023-04-15T10:02:01;11.07;;;9.87;;
1591;SDS011;789;51.612;7.510;2023-04-15T10:04:31;12.23;;;10.30;;
1591;SDS011;789;51.612;7.510;2023-04-15T10:07:01;11.80;;;10.13;;
1591;SDS011;789;51.612;7.510;2023-04-15T10:09:30;10.93;;;9.43;;
1591;SDS011;789;51.612;7.510;2023-04-15T10:11:57;13.90;;;9.83;;
1591;SDS011;789;51.612;7.510;2023-04-15T10:14:25;10.67;;;9.57;;
1591;SDS011;789;51.612;7.510;2023-04-15T10:16:56;21.40;;;10.03;;
1591;SDS011;789;51.612;7.510;2023-04-15T10:19:26;12.57;;;10.10;;
1591;SDS011;789;51.612;7.510;2023-04-15T10:21:55;12.10;;;9.93;;
1591;SDS011;789;51.612;7.510;2023-04-15T10:24:23;15.50;;;9.70;;
1591;SDS011;789;51.612;7.510;2023-04-15T10:26:50;10.20;;;9.10;;
1591;SDS011;789;51.612;7.510;2023-04-15T10:29:18;10.90;;;9.70;;
1591;SDS011;789;51.612;7.510;2023-04-15T10:31:45;11.57;;;10.30;;
1591;SDS011;789;51.612;7.510;2023-04-15T10:34:14;14.50;;;11.10;;
1591;SDS011;789;51.612;7.510;2023-04-15T10:36:42;10.97;;;9.83;;
1591;SDS011;789;51.612;7.510;2023-04-15T10:42:07;9.53;;;8.53;;
1591;SDS011;789;51.612;7.510;2023-04-15T10:44:35;9.70;;;8.53;;
1591;SDS011;789;51.612;7.510;2023-04-15T10:47:09;9.70;;;8.70;;
1591;SDS011;789;51.612;7.510;2023-04-15T10:49:49;10.23;;;9.00;;
1591;SDS011;789;51.612;7.510;2023-04-15T10:52:20;9.03;;;7.70;;
1591;SDS011;789;51.612;7.510;2023-04-15T10:54:49;9.83;;;8.00;;
1591;SDS011;789;51.612;7.510;2023-04-15T10:57:33;8.87;;;7.97;;
1591;SDS011;789;51.612;7.510;2023-04-15T11:00:03;11.57;;;8.73;;
1591;SDS011;789;51.612;7.510;2023-04-15T11:02:37;11.80;;;9.33;;
1591;SDS011;789;51.612;7.510;2023-04-15T11:05:10;11.87;;;8.80;;
1591;SDS011;789;51.612;7.510;2023-04-15T11:07:38;9.10;;;7.87;;
1591;SDS011;789;51.612;7.510;2023-04-15T11:13:21;8.63;;;7.73;;
1591;SDS011;789;51.612;7.510;2023-04-15T11:15:57;10.03;;;8.70;;
1591;SDS011;789;51.612;7.510;2023-04-15T11:18:26;9.00;;;8.20;;
1591;SDS011;789;51.612;7.510;2023-04-15T11:21:00;9.63;;;8.73;;
1591;SDS011;789;51.612;7.510;2023-04-15T11:23:30;9.23;;;8.13;;
1591;SDS011;789;51.612;7.510;2023-04-15T11:25:59;11.43;;;8.80;;
1591;SDS011;789;51.612;7.510;2023-04-15T11:28:27;8.60;;;7.73;;
1591;SDS011;789;51.612;7.510;2023-04-15T11:30:55;8.90;;;8.00;;
1591;SDS011;789;51.612;7.510;2023-04-15T11:33:22;10.47;;;9.00;;
1591;SDS011;789;51.612;7.510;2023-04-15T11:35:51;9.30;;;8.30;;
1591;SDS011;789;51.612;7.510;2023-04-15T11:38:20;11.13;;;9.30;;
1591;SDS011;789;51.612;7.510;2023-04-15T11:40:47;10.13;;;8.77;;
1591;SDS011;789;51.612;7.510;2023-04-15T11:43:16;8.53;;;7.63;;
1591;SDS011;789;51.612;7.510;2023-04-15T11:45:49;11.07;;;9.20;;
1591;SDS011;789;51.612;7.510;2023-04-15T11:48:17;12.00;;;9.37;;
1591;SDS011;789;51.612;7.510;2023-04-15T11:50:45;9.40;;;8.50;;
1591;SDS011;789;51.612;7.510;2023-04-15T11:53:12;10.10;;;9.10;;
1591;SDS011;789;51.612;7.510;2023-04-15T11:55:41;10.53;;;9.17;;
1591;SDS011;789;51.612;7.510;2023-04-15T11:58:11;9.77;;;8.80;;
1591;SDS011;789;51.612;7.510;2023-04-15T12:00:40;9.63;;;8.73;;
1591;SDS011;789;51.612;7.510;2023-04-15T12:03:19;11.77;;;9.33;;
1591;SDS011;789;51.612;7.510;2023-04-15T12:06:05;9.77;;;8.57;;
1591;SDS011;789;51.612;7.510;2023-04-15T12:08:49;9.20;;;8.30;;
1591;SDS011;789;51.612;7.510;2023-04-15T12:11:19;10.13;;;9.20;;
1591;SDS011;789;51.612;7.510;2023-04-15T12:13:47;9.70;;;8.70;;
1591;SDS011;789;51.612;7.510;2023-04-15T12:16:16;10.50;;;9.50;;
1591;SDS011;789;51.612;7.510;2023-04-15T12:18:44;10.40;;;9.40;;
1591;SDS011;789;51.612;7.510;2023-04-15T12:21:11;11.37;;;9.33;;
1591;SDS011;789;51.612;7.510;2023-04-15T12:23:46;10.63;;;9.63;;
1591;SDS011;789;51.612;7.510;2023-04-15T12:26:14;11.43;;;10.30;;
1591;SDS011;789;51.612;7.510;2023-04-15T12:28:42;10.10;;;9.20;;
1591;SDS011;789;51.612;7.510;2023-04-15T12:31:09;9.70;;;8.70;;
1591;SDS011;789;51.612;7.510;2023-04-15T12:33:37;9.73;;;8.83;;
1591;SDS011;789;51.612;7.510;2023-04-15T12:36:04;10.43;;;9.43;;
1591;SDS011;789;51.612;7.510;2023-04-15T12:38:32;10.57;;;9.60;;
1591;SDS011;789;51.612;7.510;2023-04-15T12:40:59;10.10;;;9.10;;
1591;SDS011;789;51.612;7.510;2023-04-15T12:43:25;8.80;;;8.00;;
1591;SDS011;789;51.612;7.510;2023-04-15T12:45:53;9.10;;;8.20;;
1591;SDS011;789;51.612;7.510;2023-04-15T12:48:20;9.23;;;8.33;;
1591;SDS011;789;51.612;7.510;2023-04-15T12:50:47;9.40;;;8.47;;
1591;SDS011;789;51.612;7.510;2023-04-15T12:53:14;8.63;;;7.80;;
1591;SDS011;789;51.612;7.510;2023-04-15T12:55:41;8.37;;;7.50;;
1591;SDS011;789;51.612;7.510;2023-04-15T12:58:08;8.77;;;7.97;;
1591;SDS011;789;51.612;7.510;2023-04-15T13:00:35;8.77;;;7.87;;
1591;SDS011;789;51.612;7.510;2023-04-15T13:03:04;8.33;;;7.40;;
1591;SDS011;789;51.612;7.510;2023-04-15T13:05:31;8.97;;;8.17;;
1591;SDS011;789;51.612;7.510;2023-04-15T13:07:57;8.90;;;8.00;;
1591;SDS011;789;51.612;7.510;2023-04-15T13:10:24;8.30;;;7.53;;
1591;SDS011;789;51.612;7.510;2023-04-15T13:12:52;8.90;;;8.00;;
1591;SDS011;789;51.612;7.510;2023-04-15T13:15:20;8.03;;;7.33;;
1591;SDS011;789;51.612;7.510;2023-04-15T13:17:47;8.77;;;7.83;;
1591;SDS011;789;51.612;7.510;2023-04-15T13:20:16;8.00;;;7.20;;
1591;SDS011;789;51.612;7.510;2023-04-15T13:22:42;9.03;;;7.60;;
1591;SDS011;789;51.612;7.510;2023-04-15T13:25:12;8.03;;;7.23;;
1591;SDS011;789;51.612;7.510;2023-04-15T13:27:39;7.63;;;6.90;;
1591;SDS011;789;51.612;7.510;2023-04-15T13:30:07;7.23;;;6.43;;
1591;SDS011;789;51.612;7.510;2023-04-15T13:32:34;7.80;;;7.00;;
1591;SDS011;789;51.612;7.510;2023-04-15T13:35:01;6.47;;;5.87;;
1591;SDS011;789;51.612;7.510;2023-04-15T13:37:29;8.47;;;6.77;;
1591;SDS011;789;51.612;7.510;2023-04-15T13:39:56;9.70;;;8.43;;
1591;SDS011;789;51.612;7.510;2023-04-15T13:42:23;7.70;;;6.90;;
1591;SDS011;789;51.612;7.510;2023-04-15T13:44:51;8.57;;;6.40;;
1591;SDS011;789;51.612;7.510;2023-04-15T13:47:18;7.30;;;6.60;;
1591;SDS011;789;51.612;7.510;2023-04-15T13:49:45;6.77;;;6.00;;
1591;SDS011;789;51.612;7.510;2023-04-15T13:52:12;6.90;;;6.30;;
1591;SDS011;789;51.612;7.510;2023-04-15T13:54:41;6.63;;;6.03;;
1591;SDS011;789;51.612;7.510;2023-04-15T13:57:07;8.40;;;6.77;;
1591;SDS011;789;51.612;7.510;2023-04-15T13:59:34;7.20;;;6.20;;
1591;SDS011;789;51.612;7.510;2023-04-15T14:02:01;6.20;;;5.60;;
1591;SDS011;789;51.612;7.510;2023-04-15T14:04:29;7.37;;;6.30;;
1591;SDS011;789;51.612;7.510;2023-04-15T14:06:56;6.90;;;6.20;;
1591;SDS011;789;51.612;7.510;2023-04-15T14:09:23;6.60;;;5.63;;
1591;SDS011;789;51.612;7.510;2023-04-15T14:11:51;6.40;;;5.67;;
1591;SDS011;789;51.612;7.510;2023-04-15T14:14:18;7.50;;;6.17;;
1591;SDS011;789;51.612;7.510;2023-04-15T14:16:45;6.77;;;6.17;;
1591;SDS011;789;51.612;7.510;2023-04-15T14:19:13;8.67;;;6.30;;
1591;SDS011;789;51.612;7.510;2023-04-15T14:21:40;6.33;;;5.70;;
1591;SDS011;789;51.612;7.510;2023-04-15T14:24:06;7.43;;;5.50;;
1591;SDS011;789;51.612;7.510;2023-04-15T14:26:33;5.50;;;5.00;;
1591;SDS011;789;51.612;7.510;2023-04-15T14:29:02;6.30;;;5.60;;
1591;SDS011;789;51.612;7.510;2023-04-15T14:31:31;5.57;;;4.93;;
1591;SDS011;789;51.612;7.510;2023-04-15T14:33:57;6.20;;;5.10;;
1591;SDS011;789;51.612;7.510;2023-04-15T14:36:26;7.63;;;5.50;;
1591;SDS011;789;51.612;7.510;2023-04-15T14:38:53;10.43;;;5.77;;
1591;SDS011;789;51.612;7.510;2023-04-15T14:41:20;6.23;;;4.90;;
1591;SDS011;789;51.612;7.510;2023-04-15T14:43:47;5.53;;;5.03;;
1591;SDS011;789;51.612;7.510;2023-04-15T14:46:15;6.47;;;5.87;;
1591;SDS011;789;51.612;7.510;2023-04-15T14:48:42;7.80;;;7.10;;
1591;SDS011;789;51.612;7.510;2023-04-15T14:51:09;8.03;;;7.23;;
1591;SDS011;789;51.612;7.510;2023-04-15T14:53:36;9.73;;;8.73;;
1591;SDS011;789;51.612;7.510;2023-04-15T14:56:03;9.50;;;8.60;;
1591;SDS011;789;51.612;7.510;2023-04-15T14:58:30;6.57;;;5.97;;
1591;SDS011;789;51.612;7.510;2023-04-15T15:00:57;7.60;;;5.50;;
1591;SDS011;789;51.612;7.510;2023-04-15T15:03:25;6.73;;;5.23;;
1591;SDS011;789;51.612;7.510;2023-04-15T15:05:52;6.73;;;5.70;;
1591;SDS011;789;51.612;7.510;2023-04-15T15:08:19;6.50;;;5.90;;
1591;SDS011;789;51.612;7.510;2023-04-15T15:10:46;6.20;;;5.70;;
1591;SDS011;789;51.612;7.510;2023-04-15T15:13:13;7.47;;;6.77;;
1591;SDS011;789;51.612;7.510;2023-04-15T15:15:40;9.17;;;7.17;;
1591;SDS011;789;51.612;7.510;2023-04-15T15:18:07;7.73;;;7.03;;
1591;SDS011;789;51.612;7.510;2023-04-15T15:20:36;7.43;;;6.80;;
1591;SDS011;789;51.612;7.510;2023-04-15T15:23:03;9.47;;;8.57;;
1591;SDS011;789;51.612;7.510;2023-04-15T15:25:29;12.83;;;11.50;;